Terlton, Oklahoma
Current Conditions -  °F | °C
As of 8:35 PM on Thursday 20 Nov 2014 (Local Time) from KOWP Reporting Station
Clear Clear  
Wind Chill: 41°   Ceiling: Unl
Heat Index: 45°   Visibility: 10mi
Dew Point: 29°   Wind: 7mph
Humidity: 54%   Direction: 50°NE
Pressure: 30.11"   Gusts: NA
Location:  36.19°N, 96.49°W
Report Text: KOWP 210235Z AUTO 05006KT 10SM CLR 07/M02 A3011 RMK AO2 T00721016
Loading
Personal Weather Stations






























Interactive Weather Map New forecast layout! Learn more

10-Day Weather Forecast

Advertisements
Track Severe Weather on mobile